sensor_id;sensor_type;location;lat;lon;timestamp;pressure;altitude;pressure_sealevel;temperature;humidity
68197;BME280;55019;49.382;11.358;2023-03-16T00:01:15;97067.59;;;-1.71;100.00
68197;BME280;55019;49.382;11.358;2023-03-16T00:03:41;97066.47;;;-1.66;100.00
68197;BME280;55019;49.382;11.358;2023-03-16T00:06:08;97063.09;;;-1.49;100.00
68197;BME280;55019;49.382;11.358;2023-03-16T00:08:33;97066.06;;;-1.58;99.57
68197;BME280;55019;49.382;11.358;2023-03-16T00:11:00;97058.28;;;-1.71;99.44
68197;BME280;55019;49.382;11.358;2023-03-16T00:13:27;97075.50;;;-1.77;100.00
68197;BME280;55019;49.382;11.358;2023-03-16T00:16:00;97066.47;;;-1.66;99.43
68197;BME280;55019;49.382;11.358;2023-03-16T00:18:29;97073.81;;;-1.77;100.00
68197;BME280;55019;49.382;11.358;2023-03-16T00:20:59;97062.94;;;-1.96;100.00
68197;BME280;55019;49.382;11.358;2023-03-16T00:23:27;97060.84;;;-1.88;100.00
68197;BME280;55019;49.382;11.358;2023-03-16T00:25:58;97060.03;;;-2.05;100.00
68197;BME280;55019;49.382;11.358;2023-03-16T00:28:25;97057.00;;;-2.12;100.00
68197;BME280;55019;49.382;11.358;2023-03-16T00:30:52;97062.78;;;-1.93;100.00
68197;BME280;55019;49.382;11.358;2023-03-16T00:33:26;97061.22;;;-2.12;100.00
68197;BME280;55019;49.382;11.358;2023-03-16T00:35:52;97058.91;;;-2.00;99.96
68197;BME280;55019;49.382;11.358;2023-03-16T00:38:26;97062.66;;;-2.07;99.21
68197;BME280;55019;49.382;11.358;2023-03-16T00:40:52;97056.13;;;-2.28;99.61
68197;BME280;55019;49.382;11.358;2023-03-16T00:43:18;97057.97;;;-2.31;100.00
68197;BME280;55019;49.382;11.358;2023-03-16T00:45:44;97055.34;;;-2.30;99.62
68197;BME280;55019;49.382;11.358;2023-03-16T00:48:10;97055.50;;;-2.16;99.53
68197;BME280;55019;49.382;11.358;2023-03-16T00:50:37;97052.00;;;-2.30;99.35
68197;BME280;55019;49.382;11.358;2023-03-16T00:53:03;97052.81;;;-2.30;99.07
68197;BME280;55019;49.382;11.358;2023-03-16T00:55:28;97052.38;;;-2.55;99.32
68197;BME280;55019;49.382;11.358;2023-03-16T00:57:54;97046.41;;;-2.54;99.89
68197;BME280;55019;49.382;11.358;2023-03-16T01:00:20;97046.94;;;-2.47;99.83
68197;BME280;55019;49.382;11.358;2023-03-16T01:02:47;97051.31;;;-2.34;99.18
68197;BME280;55019;49.382;11.358;2023-03-16T01:05:13;97044.47;;;-2.49;98.68
68197;BME280;55019;49.382;11.358;2023-03-16T01:07:40;97047.53;;;-2.42;99.32
68197;BME280;55019;49.382;11.358;2023-03-16T01:10:07;97040.00;;;-2.61;99.40
68197;BME280;55019;49.382;11.358;2023-03-16T01:12:33;97037.25;;;-2.56;99.52
68197;BME280;55019;49.382;11.358;2023-03-16T01:14:59;97047.44;;;-2.58;99.87
68197;BME280;55019;49.382;11.358;2023-03-16T01:17:25;97043.72;;;-2.51;99.50
68197;BME280;55019;49.382;11.358;2023-03-16T01:19:51;97036.16;;;-2.51;99.80
68197;BME280;55019;49.382;11.358;2023-03-16T01:22:18;97045.81;;;-2.59;99.83
68197;BME280;55019;49.382;11.358;2023-03-16T01:24:45;97047.25;;;-2.36;99.02
68197;BME280;55019;49.382;11.358;2023-03-16T01:27:12;97044.72;;;-2.53;98.31
68197;BME280;55019;49.382;11.358;2023-03-16T01:29:38;97039.84;;;-2.75;98.45
68197;BME280;55019;49.382;11.358;2023-03-16T01:32:06;97054.28;;;-2.77;98.92
68197;BME280;55019;49.382;11.358;2023-03-16T01:34:33;97055.19;;;-2.61;98.53
68197;BME280;55019;49.382;11.358;2023-03-16T01:36:59;97052.13;;;-2.67;98.40
68197;BME280;55019;49.382;11.358;2023-03-16T01:39:44;97055.09;;;-2.94;98.64
68197;BME280;55019;49.382;11.358;2023-03-16T01:42:10;97055.41;;;-3.00;99.29
68197;BME280;55019;49.382;11.358;2023-03-16T01:44:57;97064.69;;;-3.01;99.16
68197;BME280;55019;49.382;11.358;2023-03-16T01:47:30;97059.97;;;-2.90;99.19
68197;BME280;55019;49.382;11.358;2023-03-16T01:50:03;97065.28;;;-2.78;97.84
68197;BME280;55019;49.382;11.358;2023-03-16T01:52:34;97065.44;;;-2.81;97.50
68197;BME280;55019;49.382;11.358;2023-03-16T01:55:07;97065.66;;;-3.03;98.88
68197;BME280;55019;49.382;11.358;2023-03-16T01:57:37;97066.69;;;-3.07;99.54
68197;BME280;55019;49.382;11.358;2023-03-16T02:00:10;97061.19;;;-2.98;99.57
68197;BME280;55019;49.382;11.358;2023-03-16T02:02:55;97065.78;;;-3.06;99.34
68197;BME280;55019;49.382;11.358;2023-03-16T02:05:46;97054.66;;;-3.02;98.89
68197;BME280;55019;49.382;11.358;2023-03-16T02:08:15;97055.22;;;-3.14;98.89
68197;BME280;55019;49.382;11.358;2023-03-16T02:10:42;97056.38;;;-3.21;98.79
68197;BME280;55019;49.382;11.358;2023-03-16T02:13:09;97051.50;;;-3.07;98.56
68197;BME280;55019;49.382;11.358;2023-03-16T02:15:36;97056.84;;;-3.13;98.81
68197;BME280;55019;49.382;11.358;2023-03-16T02:18:04;97043.31;;;-3.12;98.94
68197;BME280;55019;49.382;11.358;2023-03-16T02:20:35;97044.69;;;-3.05;98.94
68197;BME280;55019;49.382;11.358;2023-03-16T02:23:05;97047.06;;;-3.02;99.43
68197;BME280;55019;49.382;11.358;2023-03-16T02:25:39;97040.72;;;-3.11;99.79
68197;BME280;55019;49.382;11.358;2023-03-16T02:28:20;97037.97;;;-3.06;99.29
68197;BME280;55019;49.382;11.358;2023-03-16T02:30:47;97036.06;;;-3.01;98.29
68197;BME280;55019;49.382;11.358;2023-03-16T02:33:14;97042.91;;;-3.03;98.38
68197;BME280;55019;49.382;11.358;2023-03-16T02:35:42;97043.97;;;-3.09;98.33
68197;BME280;55019;49.382;11.358;2023-03-16T02:38:08;97042.69;;;-2.99;97.82
68197;BME280;55019;49.382;11.358;2023-03-16T02:40:40;97043.72;;;-3.03;97.72
68197;BME280;55019;49.382;11.358;2023-03-16T02:43:18;97045.59;;;-2.89;98.06
68197;BME280;55019;49.382;11.358;2023-03-16T02:45:56;97044.34;;;-2.98;97.57
68197;BME280;55019;49.382;11.358;2023-03-16T02:51:12;97047.81;;;-3.00;97.63
68197;BME280;55019;49.382;11.358;2023-03-16T02:53:39;97051.91;;;-2.98;97.99
68197;BME280;55019;49.382;11.358;2023-03-16T02:56:06;97045.56;;;-3.06;97.70
68197;BME280;55019;49.382;11.358;2023-03-16T02:58:34;97046.00;;;-3.15;98.03
68197;BME280;55019;49.382;11.358;2023-03-16T03:01:04;97032.53;;;-3.16;98.11
68197;BME280;55019;49.382;11.358;2023-03-16T03:03:32;97039.63;;;-3.05;98.34
68197;BME280;55019;49.382;11.358;2023-03-16T03:05:59;97038.97;;;-3.27;98.00
68197;BME280;55019;49.382;11.358;2023-03-16T03:08:26;97045.38;;;-3.20;98.58
68197;BME280;55019;49.382;11.358;2023-03-16T03:10:52;97037.53;;;-3.14;98.63
68197;BME280;55019;49.382;11.358;2023-03-16T03:13:18;97038.31;;;-3.14;98.32
68197;BME280;55019;49.382;11.358;2023-03-16T03:15:43;97035.00;;;-3.14;97.53
68197;BME280;55019;49.382;11.358;2023-03-16T03:18:10;97037.72;;;-3.19;97.50
68197;BME280;55019;49.382;11.358;2023-03-16T03:20:36;97040.59;;;-3.26;97.38
68197;BME280;55019;49.382;11.358;2023-03-16T03:23:01;97031.78;;;-3.18;97.75
68197;BME280;55019;49.382;11.358;2023-03-16T03:25:27;97030.88;;;-3.35;98.04
68197;BME280;55019;49.382;11.358;2023-03-16T03:27:54;97029.00;;;-3.30;98.16
68197;BME280;55019;49.382;11.358;2023-03-16T03:30:22;97033.56;;;-3.38;98.39
68197;BME280;55019;49.382;11.358;2023-03-16T03:32:49;97031.72;;;-3.35;97.78
68197;BME280;55019;49.382;11.358;2023-03-16T03:35:17;97026.38;;;-3.29;97.63
68197;BME280;55019;49.382;11.358;2023-03-16T03:37:43;97038.28;;;-3.31;97.34
68197;BME280;55019;49.382;11.358;2023-03-16T03:40:12;97035.06;;;-3.34;97.65
68197;BME280;55019;49.382;11.358;2023-03-16T03:42:40;97044.34;;;-3.53;98.14
68197;BME280;55019;49.382;11.358;2023-03-16T03:45:06;97053.28;;;-3.46;98.30
68197;BME280;55019;49.382;11.358;2023-03-16T03:47:33;97057.94;;;-3.37;97.58
68197;BME280;55019;49.382;11.358;2023-03-16T03:49:59;97047.81;;;-3.37;97.80
68197;BME280;55019;49.382;11.358;2023-03-16T03:52:27;97041.63;;;-3.30;97.08
68197;BME280;55019;49.382;11.358;2023-03-16T03:54:53;97043.47;;;-3.34;97.55
68197;BME280;55019;49.382;11.358;2023-03-16T03:57:18;97055.47;;;-3.39;97.53
68197;BME280;55019;49.382;11.358;2023-03-16T03:59:44;97050.44;;;-3.39;97.59
68197;BME280;55019;49.382;11.358;2023-03-16T04:02:28;97045.56;;;-3.43;97.36
68197;BME280;55019;49.382;11.358;2023-03-16T04:04:55;97039.56;;;-3.41;97.03
68197;BME280;55019;49.382;11.358;2023-03-16T04:07:20;97045.56;;;-3.43;97.08
68197;BME280;55019;49.382;11.358;2023-03-16T04:09:48;97047.22;;;-3.42;97.10
68197;BME280;55019;49.382;11.358;2023-03-16T04:12:25;97041.00;;;-3.35;97.11
68197;BME280;55019;49.382;11.358;2023-03-16T04:14:52;97044.69;;;-3.42;96.40
68197;BME280;55019;49.382;11.358;2023-03-16T04:17:19;97041.50;;;-3.27;96.43
68197;BME280;55019;49.382;11.358;2023-03-16T04:19:46;97037.38;;;-3.48;96.38
68197;BME280;55019;49.382;11.358;2023-03-16T04:22:14;97029.09;;;-3.33;96.22
68197;BME280;55019;49.382;11.358;2023-03-16T04:24:40;97023.66;;;-3.43;96.63
68197;BME280;55019;49.382;11.358;2023-03-16T04:27:08;97020.53;;;-3.48;96.87
68197;BME280;55019;49.382;11.358;2023-03-16T04:29:35;97019.97;;;-3.54;96.72
68197;BME280;55019;49.382;11.358;2023-03-16T04:32:02;97013.69;;;-3.64;97.45
68197;BME280;55019;49.382;11.358;2023-03-16T04:34:31;97015.25;;;-3.62;97.77
68197;BME280;55019;49.382;11.358;2023-03-16T04:37:00;97013.00;;;-3.68;97.92
68197;BME280;55019;49.382;11.358;2023-03-16T04:39:28;97016.06;;;-3.80;98.61
68197;BME280;55019;49.382;11.358;2023-03-16T04:41:53;97012.06;;;-3.65;98.32
68197;BME280;55019;49.382;11.358;2023-03-16T04:44:22;97011.09;;;-3.81;97.42
68197;BME280;55019;49.382;11.358;2023-03-16T04:46:50;97016.16;;;-3.81;97.95
68197;BME280;55019;49.382;11.358;2023-03-16T04:49:16;97018.59;;;-3.61;97.31
68197;BME280;55019;49.382;11.358;2023-03-16T04:51:43;97013.91;;;-3.50;97.26
68197;BME280;55019;49.382;11.358;2023-03-16T04:54:13;97003.31;;;-3.58;97.03
68197;BME280;55019;49.382;11.358;2023-03-16T04:56:41;97012.34;;;-3.71;97.42
68197;BME280;55019;49.382;11.358;2023-03-16T04:59:16;97010.47;;;-3.68;97.39
68197;BME280;55019;49.382;11.358;2023-03-16T05:01:51;97002.28;;;-3.54;97.26
68197;BME280;55019;49.382;11.358;2023-03-16T05:04:16;97006.78;;;-3.61;97.11
68197;BME280;55019;49.382;11.358;2023-03-16T05:06:42;97003.31;;;-3.58;97.51
68197;BME280;55019;49.382;11.358;2023-03-16T05:09:09;97006.31;;;-3.50;97.52
68197;BME280;55019;49.382;11.358;2023-03-16T05:11:37;97006.88;;;-3.62;97.27
68197;BME280;55019;49.382;11.358;2023-03-16T05:14:06;97006.88;;;-3.62;97.19
68197;BME280;55019;49.382;11.358;2023-03-16T05:16:39;97014.38;;;-3.61;98.02
68197;BME280;55019;49.382;11.358;2023-03-16T05:19:06;97002.75;;;-3.65;98.42
68197;BME280;55019;49.382;11.358;2023-03-16T05:21:33;97010.91;;;-3.58;98.38
68197;BME280;55019;49.382;11.358;2023-03-16T05:24:04;97011.78;;;-3.59;97.92
68197;BME280;55019;49.382;11.358;2023-03-16T05:26:30;97006.81;;;-3.79;97.77
68197;BME280;55019;49.382;11.358;2023-03-16T05:28:57;97012.59;;;-3.59;97.98
68197;BME280;55019;49.382;11.358;2023-03-16T05:31:25;97006.53;;;-3.55;97.06
68197;BME280;55019;49.382;11.358;2023-03-16T05:33:53;97009.72;;;-3.70;97.04
68197;BME280;55019;49.382;11.358;2023-03-16T05:36:19;97009.25;;;-3.59;96.73
68197;BME280;55019;49.382;11.358;2023-03-16T05:38:49;97008.94;;;-3.52;97.30
68197;BME280;55019;49.382;11.358;2023-03-16T05:41:30;96993.41;;;-3.44;97.33
68197;BME280;55019;49.382;11.358;2023-03-16T05:44:16;97002.50;;;-3.40;96.96
68197;BME280;55019;49.382;11.358;2023-03-16T05:47:04;97005.75;;;-3.38;97.31
68197;BME280;55019;49.382;11.358;2023-03-16T05:49:32;97001.28;;;-3.50;97.01
68197;BME280;55019;49.382;11.358;2023-03-16T05:52:01;96997.56;;;-3.43;97.14
68197;BME280;55019;49.382;11.358;2023-03-16T05:54:27;97001.81;;;-3.25;96.53
68197;BME280;55019;49.382;11.358;2023-03-16T05:56:53;97009.56;;;-3.11;96.34
68197;BME280;55019;49.382;11.358;2023-03-16T05:59:19;96994.28;;;-3.08;96.29
68197;BME280;55019;49.382;11.358;2023-03-16T06:01:51;97000.06;;;-3.06;96.05
68197;BME280;55019;49.382;11.358;2023-03-16T06:04:19;96992.66;;;-2.92;95.94
68197;BME280;55019;49.382;11.358;2023-03-16T06:06:44;97001.59;;;-2.86;95.49
68197;BME280;55019;49.382;11.358;2023-03-16T06:09:17;97002.72;;;-2.74;94.36
68197;BME280;55019;49.382;11.358;2023-03-16T06:11:43;96997.47;;;-2.70;94.16
68197;BME280;55019;49.382;11.358;2023-03-16T06:14:09;97005.78;;;-2.68;94.96
68197;BME280;55019;49.382;11.358;2023-03-16T06:16:35;97002.97;;;-2.62;94.96
68197;BME280;55019;49.382;11.358;2023-03-16T06:19:01;97005.94;;;-2.54;94.89
68197;BME280;55019;49.382;11.358;2023-03-16T06:21:29;97009.66;;;-2.44;94.71
68197;BME280;55019;49.382;11.358;2023-03-16T06:24:02;97002.81;;;-2.25;94.55
68197;BME280;55019;49.382;11.358;2023-03-16T06:26:28;97006.09;;;-2.23;94.50
68197;BME280;55019;49.382;11.358;2023-03-16T06:28:54;97016.19;;;-2.06;93.98
68197;BME280;55019;49.382;11.358;2023-03-16T06:31:21;97022.28;;;-2.10;94.06
68197;BME280;55019;49.382;11.358;2023-03-16T06:33:46;97023.91;;;-1.92;93.86
68197;BME280;55019;49.382;11.358;2023-03-16T06:36:12;97020.72;;;-1.80;93.61
68197;BME280;55019;49.382;11.358;2023-03-16T06:38:43;97016.88;;;-1.87;93.46
68197;BME280;55019;49.382;11.358;2023-03-16T06:41:16;97023.72;;;-1.72;93.75
68197;BME280;55019;49.382;11.358;2023-03-16T06:43:44;97026.09;;;-1.53;93.42
68197;BME280;55019;49.382;11.358;2023-03-16T06:46:10;97034.47;;;-1.51;93.41
68197;BME280;55019;49.382;11.358;2023-03-16T06:48:36;97029.72;;;-1.42;92.47
68197;BME280;55019;49.382;11.358;2023-03-16T06:51:02;97033.84;;;-1.24;91.79
68197;BME280;55019;49.382;11.358;2023-03-16T06:53:29;97035.94;;;-1.32;92.16
68197;BME280;55019;49.382;11.358;2023-03-16T06:55:56;97041.44;;;-1.40;93.46
68197;BME280;55019;49.382;11.358;2023-03-16T06:58:22;97041.69;;;-1.13;92.77
68197;BME280;55019;49.382;11.358;2023-03-16T07:00:48;97046.44;;;-0.92;92.49
68197;BME280;55019;49.382;11.358;2023-03-16T07:03:13;97040.88;;;-0.83;91.48
68197;BME280;55019;49.382;11.358;2023-03-16T07:05:45;97037.59;;;-0.69;90.93
68197;BME280;55019;49.382;11.358;2023-03-16T07:08:11;97031.44;;;-0.65;90.81
68197;BME280;55019;49.382;11.358;2023-03-16T07:10:37;97020.47;;;-0.36;89.68
68197;BME280;55019;49.382;11.358;2023-03-16T07:13:05;97029.59;;;-0.18;88.52
68197;BME280;55019;49.382;11.358;2023-03-16T07:15:31;97037.59;;;-0.10;88.04
68197;BME280;55019;49.382;11.358;2023-03-16T07:17:57;97032.88;;;-0.16;88.71
68197;BME280;55019;49.382;11.358;2023-03-16T07:20:24;97029.50;;;-0.17;89.14
68197;BME280;55019;49.382;11.358;2023-03-16T07:22:51;97037.97;;;-0.03;88.52
68197;BME280;55019;49.382;11.358;2023-03-16T07:25:17;97047.97;;;-0.29;88.67
68197;BME280;55019;49.382;11.358;2023-03-16T07:27:48;97040.09;;;-0.24;88.72
68197;BME280;55019;49.382;11.358;2023-03-16T07:30:19;97055.69;;;0.13;88.65
68197;BME280;55019;49.382;11.358;2023-03-16T07:32:47;97050.91;;;0.36;88.21
68197;BME280;55019;49.382;11.358;2023-03-16T07:35:13;97055.44;;;0.31;87.84
68197;BME280;55019;49.382;11.358;2023-03-16T07:37:39;97048.09;;;0.55;87.12
68197;BME280;55019;49.382;11.358;2023-03-16T07:40:07;97038.81;;;0.68;86.72
68197;BME280;55019;49.382;11.358;2023-03-16T07:42:34;97038.44;;;1.28;83.38
68197;BME280;55019;49.382;11.358;2023-03-16T07:45:08;97041.53;;;1.45;82.31
68197;BME280;55019;49.382;11.358;2023-03-16T07:47:35;97039.13;;;1.04;83.43
68197;BME280;55019;49.382;11.358;2023-03-16T07:50:10;97042.00;;;0.57;85.57
68197;BME280;55019;49.382;11.358;2023-03-16T07:52:39;97051.69;;;0.79;85.82
68197;BME280;55019;49.382;11.358;2023-03-16T07:55:05;97048.09;;;1.09;83.82
68197;BME280;55019;49.382;11.358;2023-03-16T07:57:32;97042.97;;;1.88;81.61
68197;BME280;55019;49.382;11.358;2023-03-16T07:59:57;97058.31;;;2.51;78.42
68197;BME280;55019;49.382;11.358;2023-03-16T08:02:24;97051.25;;;2.54;77.13
68197;BME280;55019;49.382;11.358;2023-03-16T08:04:51;97059.13;;;2.64;75.67
68197;BME280;55019;49.382;11.358;2023-03-16T08:07:17;97060.56;;;2.43;74.20
68197;BME280;55019;49.382;11.358;2023-03-16T08:10:08;97053.22;;;4.05;71.84
68197;BME280;55019;49.382;11.358;2023-03-16T08:12:42;97045.31;;;4.64;68.80
68197;BME280;55019;49.382;11.358;2023-03-16T08:15:09;97044.16;;;5.33;67.25
68197;BME280;55019;49.382;11.358;2023-03-16T08:17:35;97047.16;;;4.84;66.95
68197;BME280;55019;49.382;11.358;2023-03-16T08:20:03;97045.91;;;6.06;64.19
68197;BME280;55019;49.382;11.358;2023-03-16T08:22:36;97046.41;;;6.00;64.40
68197;BME280;55019;49.382;11.358;2023-03-16T08:25:04;97041.31;;;6.20;64.29
68197;BME280;55019;49.382;11.358;2023-03-16T08:27:31;97043.22;;;5.45;65.87
68197;BME280;55019;49.382;11.358;2023-03-16T08:30:00;97033.50;;;6.01;64.54
68197;BME280;55019;49.382;11.358;2023-03-16T08:32:30;97037.97;;;6.29;62.17
68197;BME280;55019;49.382;11.358;2023-03-16T08:34:56;97044.19;;;6.47;63.14
68197;BME280;55019;49.382;11.358;2023-03-16T08:37:24;97047.16;;;6.73;62.78
68197;BME280;55019;49.382;11.358;2023-03-16T08:39:52;97046.44;;;5.58;62.21
68197;BME280;55019;49.382;11.358;2023-03-16T08:42:18;97047.06;;;7.23;62.57
68197;BME280;55019;49.382;11.358;2023-03-16T08:44:49;97041.72;;;7.45;61.58
68197;BME280;55019;49.382;11.358;2023-03-16T08:47:17;97044.53;;;6.93;61.79
68197;BME280;55019;49.382;11.358;2023-03-16T08:49:44;97046.84;;;6.96;59.73
68197;BME280;55019;49.382;11.358;2023-03-16T08:52:12;97051.31;;;7.04;60.55
68197;BME280;55019;49.382;11.358;2023-03-16T08:54:38;97039.81;;;7.37;58.61
68197;BME280;55019;49.382;11.358;2023-03-16T08:57:06;97047.94;;;6.64;61.25
68197;BME280;55019;49.382;11.358;2023-03-16T08:59:36;97038.63;;;7.89;59.47
68197;BME280;55019;49.382;11.358;2023-03-16T09:02:02;97039.66;;;8.62;57.60
68197;BME280;55019;49.382;11.358;2023-03-16T09:04:28;97032.81;;;8.34;56.68
68197;BME280;55019;49.382;11.358;2023-03-16T09:06:55;97028.72;;;9.14;56.09
68197;BME280;55019;49.382;11.358;2023-03-16T09:09:21;97025.84;;;8.54;56.07
68197;BME280;55019;49.382;11.358;2023-03-16T09:11:47;97045.38;;;7.03;58.41
68197;BME280;55019;49.382;11.358;2023-03-16T09:14:14;97042.41;;;7.07;57.81
68197;BME280;55019;49.382;11.358;2023-03-16T09:16:40;97042.53;;;5.32;63.90
68197;BME280;55019;49.382;11.358;2023-03-16T09:19:06;97046.31;;;5.59;62.73
68197;BME280;55019;49.382;11.358;2023-03-16T09:21:32;97043.41;;;6.86;59.41
68197;BME280;55019;49.382;11.358;2023-03-16T09:23:59;97041.91;;;6.33;58.45
68197;BME280;55019;49.382;11.358;2023-03-16T09:26:25;97045.22;;;6.04;63.43
68197;BME280;55019;49.382;11.358;2023-03-16T09:28:53;97037.25;;;5.97;64.02
68197;BME280;55019;49.382;11.358;2023-03-16T09:31:19;97040.38;;;7.02;64.26
68197;BME280;55019;49.382;11.358;2023-03-16T09:33:45;97050.53;;;7.12;57.23
68197;BME280;55019;49.382;11.358;2023-03-16T09:36:12;97051.19;;;6.45;59.79
68197;BME280;55019;49.382;11.358;2023-03-16T09:38:39;97042.56;;;6.76;59.93
68197;BME280;55019;49.382;11.358;2023-03-16T09:41:14;97037.47;;;6.35;57.99
68197;BME280;55019;49.382;11.358;2023-03-16T09:44:02;97043.09;;;8.25;58.81
68197;BME280;55019;49.382;11.358;2023-03-16T09:46:41;97045.28;;;7.72;54.77
68197;BME280;55019;49.382;11.358;2023-03-16T09:49:10;97029.97;;;8.28;54.98
68197;BME280;55019;49.382;11.358;2023-03-16T09:51:47;97032.25;;;7.64;55.30
68197;BME280;55019;49.382;11.358;2023-03-16T09:57:26;97036.72;;;8.93;54.33
68197;BME280;55019;49.382;11.358;2023-03-16T10:00:37;97044.41;;;6.95;55.57
68197;BME280;55019;49.382;11.358;2023-03-16T10:03:59;97028.59;;;7.48;55.29
68197;BME280;55019;49.382;11.358;2023-03-16T10:06:27;97025.75;;;8.82;54.74
68197;BME280;55019;49.382;11.358;2023-03-16T10:12:20;97034.44;;;8.35;52.19
68197;BME280;55019;49.382;11.358;2023-03-16T10:17:59;97034.56;;;8.15;52.14
68197;BME280;55019;49.382;11.358;2023-03-16T10:20:18;97029.19;;;8.73;57.49
68197;BME280;55019;49.382;11.358;2023-03-16T10:22:46;97026.63;;;9.71;55.08
68197;BME280;55019;49.382;11.358;2023-03-16T10:25:41;97020.84;;;9.60;54.85
68197;BME280;55019;49.382;11.358;2023-03-16T10:28:15;97014.16;;;10.19;54.76
68197;BME280;55019;49.382;11.358;2023-03-16T10:30:41;97010.13;;;11.34;48.62
68197;BME280;55019;49.382;11.358;2023-03-16T10:33:23;97014.47;;;9.81;47.09
68197;BME280;55019;49.382;11.358;2023-03-16T10:43:52;97002.63;;;12.44;42.08
68197;BME280;55019;49.382;11.358;2023-03-16T10:46:19;96996.38;;;9.98;49.54
68197;BME280;55019;49.382;11.358;2023-03-16T10:48:58;96998.81;;;10.68;46.11
68197;BME280;55019;49.382;11.358;2023-03-16T10:51:33;96999.59;;;10.10;48.75
68197;BME280;55019;49.382;11.358;2023-03-16T10:54:13;96995.97;;;10.20;47.85
68197;BME280;55019;49.382;11.358;2023-03-16T10:56:40;96985.16;;;11.74;50.46
68197;BME280;55019;49.382;11.358;2023-03-16T10:59:26;96980.25;;;10.65;46.04
68197;BME280;55019;49.382;11.358;2023-03-16T11:01:53;96989.16;;;10.45;50.43
68197;BME280;55019;49.382;11.358;2023-03-16T11:04:19;96976.34;;;9.58;47.03
68197;BME280;55019;49.382;11.358;2023-03-16T11:06:52;96980.63;;;9.49;47.33
68197;BME280;55019;49.382;11.358;2023-03-16T11:09:31;96973.50;;;8.89;46.47
68197;BME280;55019;49.382;11.358;2023-03-16T11:11:59;96967.88;;;8.76;47.41
68197;BME280;55019;49.382;11.358;2023-03-16T11:14:27;96970.84;;;8.81;51.97
68197;BME280;55019;49.382;11.358;2023-03-16T11:17:03;96979.19;;;9.37;45.27
68197;BME280;55019;49.382;11.358;2023-03-16T11:19:56;96981.47;;;11.28;45.82
68197;BME280;55019;49.382;11.358;2023-03-16T11:22:25;96982.13;;;12.89;41.61
68197;BME280;55019;49.382;11.358;2023-03-16T11:25:23;96985.22;;;10.33;43.15
68197;BME280;55019;49.382;11.358;2023-03-16T11:32:51;96974.03;;;13.61;40.71
68197;BME280;55019;49.382;11.358;2023-03-16T11:35:45;96974.28;;;13.13;38.72
68197;BME280;55019;49.382;11.358;2023-03-16T11:46:18;96971.06;;;10.19;41.92
68197;BME280;55019;49.382;11.358;2023-03-16T12:00:22;96947.59;;;12.34;39.06
68197;BME280;55019;49.382;11.358;2023-03-16T12:11:29;96940.16;;;12.23;37.86
68197;BME280;55019;49.382;11.358;2023-03-16T12:14:39;96935.56;;;11.30;38.82
68197;BME280;55019;49.382;11.358;2023-03-16T12:17:14;96947.13;;;10.35;40.02
68197;BME280;55019;49.382;11.358;2023-03-16T12:19:48;96943.69;;;10.52;39.82
68197;BME280;55019;49.382;11.358;2023-03-16T12:24:54;96918.16;;;11.95;36.07
68197;BME280;55019;49.382;11.358;2023-03-16T12:27:24;96910.00;;;11.11;37.40
68197;BME280;55019;49.382;11.358;2023-03-16T12:30:19;96929.63;;;10.96;38.50
68197;BME280;55019;49.382;11.358;2023-03-16T12:38:35;96915.84;;;12.32;37.09
68197;BME280;55019;49.382;11.358;2023-03-16T12:41:14;96920.75;;;11.95;36.95
68197;BME280;55019;49.382;11.358;2023-03-16T12:44:02;96905.88;;;11.73;35.67
68197;BME280;55019;49.382;11.358;2023-03-16T12:46:48;96902.59;;;11.32;35.42
68197;BME280;55019;49.382;11.358;2023-03-16T12:49:17;96906.00;;;11.48;38.12
68197;BME280;55019;49.382;11.358;2023-03-16T12:51:57;96906.81;;;12.20;35.90
68197;BME280;55019;49.382;11.358;2023-03-16T12:54:24;96910.09;;;13.60;35.82
68197;BME280;55019;49.382;11.358;2023-03-16T12:57:02;96903.63;;;11.86;33.51
68197;BME280;55019;49.382;11.358;2023-03-16T12:59:40;96906.44;;;11.12;37.40
68197;BME280;55019;49.382;11.358;2023-03-16T13:02:16;96899.53;;;12.08;35.63
68197;BME280;55019;49.382;11.358;2023-03-16T13:04:46;96898.13;;;11.57;32.64
68197;BME280;55019;49.382;11.358;2023-03-16T13:07:18;96879.75;;;11.19;33.69
68197;BME280;55019;49.382;11.358;2023-03-16T13:09:53;96881.34;;;10.96;34.69
68197;BME280;55019;49.382;11.358;2023-03-16T13:12:30;96875.25;;;12.71;32.65
68197;BME280;55019;49.382;11.358;2023-03-16T13:14:57;96875.69;;;12.36;32.81
68197;BME280;55019;49.382;11.358;2023-03-16T13:17:26;96875.75;;;11.25;33.78
68197;BME280;55019;49.382;11.358;2023-03-16T13:20:06;96869.84;;;12.34;35.18
68197;BME280;55019;49.382;11.358;2023-03-16T13:22:49;96879.34;;;12.96;35.97
68197;BME280;55019;49.382;11.358;2023-03-16T13:25:43;96889.50;;;14.18;31.40
68197;BME280;55019;49.382;11.358;2023-03-16T13:28:12;96872.19;;;12.13;33.95
68197;BME280;55019;49.382;11.358;2023-03-16T13:30:44;96869.22;;;12.32;30.94
68197;BME280;55019;49.382;11.358;2023-03-16T13:39:56;96872.94;;;13.37;30.52
68197;BME280;55019;49.382;11.358;2023-03-16T13:42:24;96874.09;;;13.57;33.57
68197;BME280;55019;49.382;11.358;2023-03-16T13:44:52;96866.81;;;14.84;31.84
68197;BME280;55019;49.382;11.358;2023-03-16T13:47:18;96872.88;;;14.04;31.74
68197;BME280;55019;49.382;11.358;2023-03-16T13:49:53;96873.84;;;14.03;31.78
68197;BME280;55019;49.382;11.358;2023-03-16T13:52:24;96866.41;;;14.00;31.04
68197;BME280;55019;49.382;11.358;2023-03-16T13:54:51;96871.09;;;13.68;32.26
68197;BME280;55019;49.382;11.358;2023-03-16T13:57:23;96871.25;;;12.53;31.70
68197;BME280;55019;49.382;11.358;2023-03-16T13:59:50;96856.09;;;12.72;35.26
68197;BME280;55019;49.382;11.358;2023-03-16T14:02:19;96846.50;;;14.94;33.44
68197;BME280;55019;49.382;11.358;2023-03-16T14:04:46;96851.59;;;12.28;31.72
68197;BME280;55019;49.382;11.358;2023-03-16T14:07:18;96845.22;;;12.38;34.82
68197;BME280;55019;49.382;11.358;2023-03-16T14:19:04;96828.19;;;14.09;33.04
68197;BME280;55019;49.382;11.358;2023-03-16T14:21:33;96830.44;;;14.90;33.34
68197;BME280;55019;49.382;11.358;2023-03-16T14:24:04;96827.72;;;12.79;31.90
68197;BME280;55019;49.382;11.358;2023-03-16T14:26:43;96820.66;;;14.14;32.79